sensor_id;sensor_type;location;lat;lon;timestamp;P1;durP1;ratioP1;P2;durP2;ratioP2
22097;SDS011;11215;51.938;8.464;2023-03-15T00:05:58;6.37;;;2.20;;
22097;SDS011;11215;51.938;8.464;2023-03-15T00:21:37;5.70;;;1.60;;
22097;SDS011;11215;51.938;8.464;2023-03-15T00:27:26;5.27;;;1.70;;
22097;SDS011;11215;51.938;8.464;2023-03-15T00:32:45;6.03;;;1.97;;
22097;SDS011;11215;51.938;8.464;2023-03-15T00:35:11;9.33;;;2.10;;
22097;SDS011;11215;51.938;8.464;2023-03-15T00:41:07;6.77;;;2.03;;
22097;SDS011;11215;51.938;8.464;2023-03-15T00:46:56;5.87;;;1.90;;
22097;SDS011;11215;51.938;8.464;2023-03-15T00:52:44;4.43;;;1.80;;
22097;SDS011;11215;51.938;8.464;2023-03-15T00:58:32;5.00;;;1.60;;
22097;SDS011;11215;51.938;8.464;2023-03-15T01:04:19;4.47;;;1.70;;
22097;SDS011;11215;51.938;8.464;2023-03-15T01:10:07;8.40;;;1.80;;
22097;SDS011;11215;51.938;8.464;2023-03-15T01:15:55;10.63;;;2.83;;
22097;SDS011;11215;51.938;8.464;2023-03-15T01:28:27;8.23;;;2.50;;
22097;SDS011;11215;51.938;8.464;2023-03-15T01:34:14;4.87;;;2.03;;
22097;SDS011;11215;51.938;8.464;2023-03-15T01:40:02;5.57;;;2.33;;
22097;SDS011;11215;51.938;8.464;2023-03-15T01:55:11;4.83;;;2.20;;
22097;SDS011;11215;51.938;8.464;2023-03-15T02:01:02;3.30;;;1.47;;
22097;SDS011;11215;51.938;8.464;2023-03-15T02:06:51;4.10;;;1.87;;
22097;SDS011;11215;51.938;8.464;2023-03-15T02:12:45;4.90;;;1.60;;
22097;SDS011;11215;51.938;8.464;2023-03-15T02:18:37;11.03;;;4.30;;
22097;SDS011;11215;51.938;8.464;2023-03-15T02:34:20;9.73;;;3.97;;
22097;SDS011;11215;51.938;8.464;2023-03-15T02:40:18;6.17;;;3.50;;
22097;SDS011;11215;51.938;8.464;2023-03-15T02:49:30;6.23;;;4.50;;
22097;SDS011;11215;51.938;8.464;2023-03-15T02:55:21;8.73;;;5.53;;
22097;SDS011;11215;51.938;8.464;2023-03-15T03:01:15;6.97;;;4.97;;
22097;SDS011;11215;51.938;8.464;2023-03-15T03:07:03;7.47;;;5.27;;
22097;SDS011;11215;51.938;8.464;2023-03-15T03:22:38;7.33;;;6.37;;
22097;SDS011;11215;51.938;8.464;2023-03-15T03:28:27;7.30;;;6.50;;
22097;SDS011;11215;51.938;8.464;2023-03-15T03:37:39;7.47;;;5.63;;
22097;SDS011;11215;51.938;8.464;2023-03-15T03:43:26;10.27;;;6.20;;
22097;SDS011;11215;51.938;8.464;2023-03-15T03:49:14;9.10;;;7.03;;
22097;SDS011;11215;51.938;8.464;2023-03-15T03:55:02;10.63;;;6.00;;
22097;SDS011;11215;51.938;8.464;2023-03-15T03:59:57;8.33;;;6.20;;
22097;SDS011;11215;51.938;8.464;2023-03-15T04:02:23;8.90;;;6.00;;
22097;SDS011;11215;51.938;8.464;2023-03-15T04:04:48;7.43;;;5.47;;
22097;SDS011;11215;51.938;8.464;2023-03-15T04:10:20;8.90;;;5.67;;
22097;SDS011;11215;51.938;8.464;2023-03-15T04:16:13;7.03;;;4.93;;
22097;SDS011;11215;51.938;8.464;2023-03-15T04:25:22;5.77;;;4.50;;
22097;SDS011;11215;51.938;8.464;2023-03-15T04:27:50;6.53;;;4.80;;
22097;SDS011;11215;51.938;8.464;2023-03-15T04:30:25;6.13;;;5.23;;
22097;SDS011;11215;51.938;8.464;2023-03-15T04:36:06;6.27;;;5.17;;
22097;SDS011;11215;51.938;8.464;2023-03-15T04:38:32;8.07;;;5.40;;
22097;SDS011;11215;51.938;8.464;2023-03-15T04:47:46;7.63;;;4.70;;
22097;SDS011;11215;51.938;8.464;2023-03-15T04:53:35;6.83;;;3.97;;
22097;SDS011;11215;51.938;8.464;2023-03-15T04:59:25;8.27;;;4.03;;
22097;SDS011;11215;51.938;8.464;2023-03-15T05:05:12;7.10;;;4.43;;
22097;SDS011;11215;51.938;8.464;2023-03-15T05:11:00;6.73;;;4.03;;
22097;SDS011;11215;51.938;8.464;2023-03-15T05:16:51;7.07;;;3.90;;
22097;SDS011;11215;51.938;8.464;2023-03-15T05:22:42;6.93;;;4.23;;
22097;SDS011;11215;51.938;8.464;2023-03-15T05:28:29;5.93;;;4.07;;
22097;SDS011;11215;51.938;8.464;2023-03-15T05:44:12;4.87;;;3.83;;
22097;SDS011;11215;51.938;8.464;2023-03-15T05:49:51;5.33;;;3.87;;
22097;SDS011;11215;51.938;8.464;2023-03-15T05:52:17;7.20;;;3.97;;
22097;SDS011;11215;51.938;8.464;2023-03-15T05:58:05;7.73;;;4.23;;
22097;SDS011;11215;51.938;8.464;2023-03-15T06:07:14;5.13;;;3.77;;
22097;SDS011;11215;51.938;8.464;2023-03-15T06:13:02;9.73;;;4.13;;
22097;SDS011;11215;51.938;8.464;2023-03-15T06:18:49;7.10;;;4.30;;
22097;SDS011;11215;51.938;8.464;2023-03-15T06:21:33;5.53;;;4.23;;
22097;SDS011;11215;51.938;8.464;2023-03-15T06:23:59;6.47;;;4.30;;
22097;SDS011;11215;51.938;8.464;2023-03-15T06:26:25;6.47;;;4.40;;
22097;SDS011;11215;51.938;8.464;2023-03-15T06:32:12;7.07;;;3.53;;
22097;SDS011;11215;51.938;8.464;2023-03-15T06:38:00;8.47;;;4.83;;
22097;SDS011;11215;51.938;8.464;2023-03-15T06:56:47;6.30;;;3.93;;
22097;SDS011;11215;51.938;8.464;2023-03-15T07:02:34;8.67;;;4.10;;
22097;SDS011;11215;51.938;8.464;2023-03-15T07:05:02;8.07;;;4.80;;
22097;SDS011;11215;51.938;8.464;2023-03-15T07:10:53;6.90;;;4.00;;
22097;SDS011;11215;51.938;8.464;2023-03-15T07:16:40;8.30;;;4.07;;
22097;SDS011;11215;51.938;8.464;2023-03-15T07:22:28;5.43;;;3.60;;
22097;SDS011;11215;51.938;8.464;2023-03-15T07:34:36;5.77;;;4.10;;
22097;SDS011;11215;51.938;8.464;2023-03-15T07:40:24;6.17;;;3.30;;
22097;SDS011;11215;51.938;8.464;2023-03-15T07:55:53;7.47;;;3.83;;
22097;SDS011;11215;51.938;8.464;2023-03-15T08:01:40;5.67;;;3.43;;
22097;SDS011;11215;51.938;8.464;2023-03-15T08:07:28;6.30;;;3.43;;
22097;SDS011;11215;51.938;8.464;2023-03-15T08:13:15;7.17;;;4.23;;
22097;SDS011;11215;51.938;8.464;2023-03-15T08:19:02;8.07;;;3.97;;
22097;SDS011;11215;51.938;8.464;2023-03-15T08:24:50;7.17;;;3.80;;
22097;SDS011;11215;51.938;8.464;2023-03-15T08:30:39;7.43;;;4.17;;
22097;SDS011;11215;51.938;8.464;2023-03-15T08:36:27;10.17;;;3.57;;
22097;SDS011;11215;51.938;8.464;2023-03-15T08:42:14;9.97;;;4.20;;
22097;SDS011;11215;51.938;8.464;2023-03-15T08:51:24;11.77;;;3.60;;
22097;SDS011;11215;51.938;8.464;2023-03-15T08:59:41;9.80;;;3.63;;
22097;SDS011;11215;51.938;8.464;2023-03-15T09:05:32;6.93;;;3.27;;
22097;SDS011;11215;51.938;8.464;2023-03-15T09:11:20;8.73;;;3.53;;
22097;SDS011;11215;51.938;8.464;2023-03-15T09:17:08;6.90;;;3.60;;
22097;SDS011;11215;51.938;8.464;2023-03-15T09:22:57;7.73;;;3.33;;
22097;SDS011;11215;51.938;8.464;2023-03-15T09:28:45;6.80;;;3.40;;
22097;SDS011;11215;51.938;8.464;2023-03-15T09:34:33;8.40;;;3.53;;
22097;SDS011;11215;51.938;8.464;2023-03-15T09:46:23;7.53;;;3.17;;
22097;SDS011;11215;51.938;8.464;2023-03-15T09:56:17;6.57;;;3.07;;
22097;SDS011;11215;51.938;8.464;2023-03-15T10:02:28;7.23;;;3.30;;
22097;SDS011;11215;51.938;8.464;2023-03-15T10:08:17;12.57;;;3.80;;
22097;SDS011;11215;51.938;8.464;2023-03-15T10:14:21;5.90;;;3.30;;
22097;SDS011;11215;51.938;8.464;2023-03-15T10:20:51;8.23;;;3.10;;
22097;SDS011;11215;51.938;8.464;2023-03-15T10:34:03;5.57;;;2.40;;
22097;SDS011;11215;51.938;8.464;2023-03-15T10:39:54;4.90;;;2.50;;
22097;SDS011;11215;51.938;8.464;2023-03-15T10:56:06;9.83;;;2.40;;
22097;SDS011;11215;51.938;8.464;2023-03-15T11:02:21;7.13;;;2.50;;
22097;SDS011;11215;51.938;8.464;2023-03-15T11:08:12;4.37;;;2.07;;
22097;SDS011;11215;51.938;8.464;2023-03-15T11:14:00;4.47;;;2.03;;
22097;SDS011;11215;51.938;8.464;2023-03-15T11:19:56;5.37;;;1.83;;
22097;SDS011;11215;51.938;8.464;2023-03-15T11:36:29;3.57;;;1.80;;
22097;SDS011;11215;51.938;8.464;2023-03-15T11:42:28;3.50;;;1.57;;
22097;SDS011;11215;51.938;8.464;2023-03-15T11:59:07;5.33;;;1.47;;
22097;SDS011;11215;51.938;8.464;2023-03-15T12:11:37;3.63;;;1.50;;
22097;SDS011;11215;51.938;8.464;2023-03-15T12:22:52;4.00;;;1.00;;
22097;SDS011;11215;51.938;8.464;2023-03-15T12:32:44;6.60;;;1.30;;
22097;SDS011;11215;51.938;8.464;2023-03-15T12:38:37;5.10;;;1.30;;
22097;SDS011;11215;51.938;8.464;2023-03-15T13:00:16;4.10;;;1.20;;
22097;SDS011;11215;51.938;8.464;2023-03-15T13:12:13;6.20;;;1.40;;
22097;SDS011;11215;51.938;8.464;2023-03-15T13:18:44;4.47;;;1.07;;
22097;SDS011;11215;51.938;8.464;2023-03-15T13:36:45;3.50;;;1.50;;
22097;SDS011;11215;51.938;8.464;2023-03-15T13:43:17;4.07;;;1.27;;
22097;SDS011;11215;51.938;8.464;2023-03-15T13:49:28;1.83;;;1.00;;
22097;SDS011;11215;51.938;8.464;2023-03-15T13:55:21;2.67;;;1.30;;
22097;SDS011;11215;51.938;8.464;2023-03-15T14:01:10;4.00;;;1.10;;
22097;SDS011;11215;51.938;8.464;2023-03-15T14:07:08;3.17;;;1.20;;
22097;SDS011;11215;51.938;8.464;2023-03-15T14:19:40;4.10;;;1.37;;
22097;SDS011;11215;51.938;8.464;2023-03-15T14:26:19;2.40;;;1.00;;
22097;SDS011;11215;51.938;8.464;2023-03-15T14:32:36;2.20;;;0.73;;
22097;SDS011;11215;51.938;8.464;2023-03-15T14:38:25;0.80;;;0.70;;
22097;SDS011;11215;51.938;8.464;2023-03-15T14:44:18;1.20;;;1.03;;
22097;SDS011;11215;51.938;8.464;2023-03-15T14:50:12;1.37;;;0.60;;
22097;SDS011;11215;51.938;8.464;2023-03-15T15:09:09;2.47;;;0.60;;
22097;SDS011;11215;51.938;8.464;2023-03-15T15:14:57;4.17;;;0.83;;
22097;SDS011;11215;51.938;8.464;2023-03-15T15:20:44;2.40;;;0.80;;
22097;SDS011;11215;51.938;8.464;2023-03-15T15:26:32;2.43;;;0.80;;
22097;SDS011;11215;51.938;8.464;2023-03-15T15:32:20;3.13;;;1.03;;
22097;SDS011;11215;51.938;8.464;2023-03-15T15:38:08;2.73;;;1.13;;
22097;SDS011;11215;51.938;8.464;2023-03-15T15:43:57;3.13;;;1.00;;
22097;SDS011;11215;51.938;8.464;2023-03-15T15:49:45;3.07;;;0.87;;
22097;SDS011;11215;51.938;8.464;2023-03-15T15:55:34;2.80;;;0.90;;
22097;SDS011;11215;51.938;8.464;2023-03-15T16:01:23;2.20;;;0.80;;
22097;SDS011;11215;51.938;8.464;2023-03-15T16:07:10;2.03;;;0.80;;
22097;SDS011;11215;51.938;8.464;2023-03-15T16:12:58;3.03;;;0.90;;
22097;SDS011;11215;51.938;8.464;2023-03-15T16:18:46;2.10;;;0.90;;
22097;SDS011;11215;51.938;8.464;2023-03-15T16:24:33;1.53;;;0.77;;
22097;SDS011;11215;51.938;8.464;2023-03-15T16:30:31;2.80;;;0.93;;
22097;SDS011;11215;51.938;8.464;2023-03-15T16:36:20;2.50;;;0.90;;
22097;SDS011;11215;51.938;8.464;2023-03-15T16:42:10;2.67;;;0.80;;
22097;SDS011;11215;51.938;8.464;2023-03-15T16:47:58;1.63;;;0.70;;
22097;SDS011;11215;51.938;8.464;2023-03-15T16:53:45;2.10;;;0.60;;
22097;SDS011;11215;51.938;8.464;2023-03-15T16:59:33;9.33;;;7.30;;
22097;SDS011;11215;51.938;8.464;2023-03-15T17:05:20;6.27;;;3.23;;
22097;SDS011;11215;51.938;8.464;2023-03-15T17:20:57;1.53;;;0.93;;
22097;SDS011;11215;51.938;8.464;2023-03-15T17:26:45;2.20;;;1.10;;
22097;SDS011;11215;51.938;8.464;2023-03-15T17:32:32;4.07;;;1.40;;
22097;SDS011;11215;51.938;8.464;2023-03-15T17:38:20;4.70;;;1.37;;
22097;SDS011;11215;51.938;8.464;2023-03-15T17:44:11;2.00;;;0.90;;
22097;SDS011;11215;51.938;8.464;2023-03-15T17:49:59;1.87;;;1.13;;
22097;SDS011;11215;51.938;8.464;2023-03-15T17:55:46;2.07;;;1.60;;
22097;SDS011;11215;51.938;8.464;2023-03-15T18:01:34;2.93;;;1.53;;
22097;SDS011;11215;51.938;8.464;2023-03-15T18:07:22;3.47;;;1.63;;
22097;SDS011;11215;51.938;8.464;2023-03-15T18:16:36;3.97;;;1.60;;
22097;SDS011;11215;51.938;8.464;2023-03-15T18:22:24;2.30;;;1.73;;
22097;SDS011;11215;51.938;8.464;2023-03-15T18:28:11;5.40;;;2.60;;
22097;SDS011;11215;51.938;8.464;2023-03-15T18:33:59;4.33;;;2.60;;
22097;SDS011;11215;51.938;8.464;2023-03-15T18:39:47;7.87;;;4.13;;
22097;SDS011;11215;51.938;8.464;2023-03-15T18:45:35;10.67;;;4.10;;
22097;SDS011;11215;51.938;8.464;2023-03-15T18:51:23;5.83;;;3.60;;
22097;SDS011;11215;51.938;8.464;2023-03-15T18:57:14;5.83;;;3.30;;
22097;SDS011;11215;51.938;8.464;2023-03-15T19:03:03;7.57;;;4.17;;
22097;SDS011;11215;51.938;8.464;2023-03-15T19:08:51;12.20;;;5.80;;
22097;SDS011;11215;51.938;8.464;2023-03-15T19:24:40;8.10;;;4.73;;
22097;SDS011;11215;51.938;8.464;2023-03-15T19:30:28;7.67;;;4.43;;
22097;SDS011;11215;51.938;8.464;2023-03-15T19:36:17;12.47;;;7.63;;
22097;SDS011;11215;51.938;8.464;2023-03-15T19:42:05;10.30;;;7.47;;
22097;SDS011;11215;51.938;8.464;2023-03-15T19:47:52;12.43;;;8.37;;
22097;SDS011;11215;51.938;8.464;2023-03-15T19:53:40;12.30;;;8.97;;
22097;SDS011;11215;51.938;8.464;2023-03-15T19:56:05;14.37;;;10.20;;
22097;SDS011;11215;51.938;8.464;2023-03-15T19:58:50;15.43;;;10.23;;
22097;SDS011;11215;51.938;8.464;2023-03-15T20:04:38;23.13;;;13.77;;
22097;SDS011;11215;51.938;8.464;2023-03-15T20:10:26;20.40;;;13.80;;
22097;SDS011;11215;51.938;8.464;2023-03-15T20:19:18;16.27;;;11.90;;
22097;SDS011;11215;51.938;8.464;2023-03-15T20:21:43;20.37;;;12.23;;
22097;SDS011;11215;51.938;8.464;2023-03-15T20:27:31;16.73;;;11.37;;
22097;SDS011;11215;51.938;8.464;2023-03-15T20:33:19;16.23;;;10.23;;
22097;SDS011;11215;51.938;8.464;2023-03-15T20:39:07;16.17;;;9.07;;
22097;SDS011;11215;51.938;8.464;2023-03-15T20:44:55;14.30;;;8.90;;
22097;SDS011;11215;51.938;8.464;2023-03-15T20:50:45;14.13;;;7.73;;
22097;SDS011;11215;51.938;8.464;2023-03-15T20:56:33;11.70;;;7.70;;
22097;SDS011;11215;51.938;8.464;2023-03-15T21:02:20;10.80;;;6.43;;
22097;SDS011;11215;51.938;8.464;2023-03-15T21:08:08;10.87;;;6.13;;
22097;SDS011;11215;51.938;8.464;2023-03-15T21:13:56;9.33;;;6.43;;
22097;SDS011;11215;51.938;8.464;2023-03-15T21:29:43;10.13;;;5.90;;
22097;SDS011;11215;51.938;8.464;2023-03-15T21:35:31;8.30;;;5.50;;
22097;SDS011;11215;51.938;8.464;2023-03-15T21:41:25;6.23;;;4.50;;
22097;SDS011;11215;51.938;8.464;2023-03-15T21:47:13;6.87;;;4.10;;
22097;SDS011;11215;51.938;8.464;2023-03-15T21:53:02;6.37;;;4.23;;
22097;SDS011;11215;51.938;8.464;2023-03-15T21:58:51;7.00;;;4.70;;
22097;SDS011;11215;51.938;8.464;2023-03-15T22:07:32;8.53;;;4.57;;
22097;SDS011;11215;51.938;8.464;2023-03-15T22:09:58;9.27;;;5.43;;
22097;SDS011;11215;51.938;8.464;2023-03-15T22:15:18;10.63;;;4.97;;
22097;SDS011;11215;51.938;8.464;2023-03-15T22:21:07;10.03;;;6.03;;
22097;SDS011;11215;51.938;8.464;2023-03-15T22:26:35;11.47;;;5.47;;
22097;SDS011;11215;51.938;8.464;2023-03-15T22:29:01;11.07;;;5.97;;
22097;SDS011;11215;51.938;8.464;2023-03-15T22:31:27;10.47;;;6.60;;
22097;SDS011;11215;51.938;8.464;2023-03-15T22:40:13;9.67;;;4.60;;
22097;SDS011;11215;51.938;8.464;2023-03-15T22:52:36;9.23;;;5.00;;
22097;SDS011;11215;51.938;8.464;2023-03-15T22:58:23;9.03;;;4.23;;
22097;SDS011;11215;51.938;8.464;2023-03-15T23:04:12;6.20;;;3.90;;
22097;SDS011;11215;51.938;8.464;2023-03-15T23:13:21;7.40;;;3.30;;
22097;SDS011;11215;51.938;8.464;2023-03-15T23:19:08;6.77;;;3.73;;
22097;SDS011;11215;51.938;8.464;2023-03-15T23:34:59;4.93;;;3.67;;
22097;SDS011;11215;51.938;8.464;2023-03-15T23:40:52;5.80;;;3.80;;
22097;SDS011;11215;51.938;8.464;2023-03-15T23:52:51;7.10;;;5.23;;
22097;SDS011;11215;51.938;8.464;2023-03-15T23:58:39;5.47;;;3.67;;
